sensor_id;sensor_type;location;lat;lon;timestamp;temperature;humidity
2639;DHT22;1329;51.384;7.122;2023-02-03T00:01:10;9.90;99.90
2639;DHT22;1329;51.384;7.122;2023-02-03T00:03:39;9.90;99.90
2639;DHT22;1329;51.384;7.122;2023-02-03T00:06:06;9.80;99.90
2639;DHT22;1329;51.384;7.122;2023-02-03T00:08:34;9.90;99.90
2639;DHT22;1329;51.384;7.122;2023-02-03T00:11:02;9.90;99.90
2639;DHT22;1329;51.384;7.122;2023-02-03T00:13:29;9.90;99.90
2639;DHT22;1329;51.384;7.122;2023-02-03T00:15:56;9.90;99.90
2639;DHT22;1329;51.384;7.122;2023-02-03T00:18:23;9.90;99.90
2639;DHT22;1329;51.384;7.122;2023-02-03T00:20:51;9.90;99.90
2639;DHT22;1329;51.384;7.122;2023-02-03T00:23:18;9.90;99.90
2639;DHT22;1329;51.384;7.122;2023-02-03T00:25:45;9.90;99.90
2639;DHT22;1329;51.384;7.122;2023-02-03T00:28:12;9.90;99.90
2639;DHT22;1329;51.384;7.122;2023-02-03T00:30:39;9.90;99.90
2639;DHT22;1329;51.384;7.122;2023-02-03T00:33:06;9.90;99.90
2639;DHT22;1329;51.384;7.122;2023-02-03T00:35:33;9.90;99.90
2639;DHT22;1329;51.384;7.122;2023-02-03T00:38:04;9.90;99.90
2639;DHT22;1329;51.384;7.122;2023-02-03T00:40:32;9.90;99.90
2639;DHT22;1329;51.384;7.122;2023-02-03T00:42:59;9.90;99.90
2639;DHT22;1329;51.384;7.122;2023-02-03T00:45:26;9.90;99.90
2639;DHT22;1329;51.384;7.122;2023-02-03T00:47:53;9.90;99.90
2639;DHT22;1329;51.384;7.122;2023-02-03T00:50:20;9.90;99.90
2639;DHT22;1329;51.384;7.122;2023-02-03T00:52:46;9.90;99.90
2639;DHT22;1329;51.384;7.122;2023-02-03T00:55:15;9.90;99.90
2639;DHT22;1329;51.384;7.122;2023-02-03T00:57:42;10.00;99.90
2639;DHT22;1329;51.384;7.122;2023-02-03T01:00:10;10.00;99.90
2639;DHT22;1329;51.384;7.122;2023-02-03T01:02:37;9.90;99.90
2639;DHT22;1329;51.384;7.122;2023-02-03T01:05:05;10.00;99.90
2639;DHT22;1329;51.384;7.122;2023-02-03T01:07:32;10.00;99.90
2639;DHT22;1329;51.384;7.122;2023-02-03T01:09:59;10.00;99.90
2639;DHT22;1329;51.384;7.122;2023-02-03T01:12:29;10.00;99.90
2639;DHT22;1329;51.384;7.122;2023-02-03T01:14:57;10.00;99.90
2639;DHT22;1329;51.384;7.122;2023-02-03T01:17:24;10.00;99.90
2639;DHT22;1329;51.384;7.122;2023-02-03T01:19:52;10.00;99.90
2639;DHT22;1329;51.384;7.122;2023-02-03T01:22:19;10.10;99.90
2639;DHT22;1329;51.384;7.122;2023-02-03T01:24:46;10.10;99.90
2639;DHT22;1329;51.384;7.122;2023-02-03T01:27:12;10.10;99.90
2639;DHT22;1329;51.384;7.122;2023-02-03T01:29:41;10.10;99.90
2639;DHT22;1329;51.384;7.122;2023-02-03T01:32:07;10.10;99.90
2639;DHT22;1329;51.384;7.122;2023-02-03T01:34:34;10.10;99.90
2639;DHT22;1329;51.384;7.122;2023-02-03T01:37:01;10.10;99.90
2639;DHT22;1329;51.384;7.122;2023-02-03T01:39:28;10.10;99.90
2639;DHT22;1329;51.384;7.122;2023-02-03T01:41:55;10.10;99.90
2639;DHT22;1329;51.384;7.122;2023-02-03T01:44:37;10.10;99.90
2639;DHT22;1329;51.384;7.122;2023-02-03T01:47:17;10.10;99.90
2639;DHT22;1329;51.384;7.122;2023-02-03T01:49:52;10.10;99.90
2639;DHT22;1329;51.384;7.122;2023-02-03T01:52:22;10.10;99.90
2639;DHT22;1329;51.384;7.122;2023-02-03T01:54:49;10.10;99.90
2639;DHT22;1329;51.384;7.122;2023-02-03T01:57:21;10.10;99.90
2639;DHT22;1329;51.384;7.122;2023-02-03T01:59:53;10.10;99.90
2639;DHT22;1329;51.384;7.122;2023-02-03T02:02:22;10.10;99.90
2639;DHT22;1329;51.384;7.122;2023-02-03T02:04:56;10.10;99.90
2639;DHT22;1329;51.384;7.122;2023-02-03T02:07:33;10.10;99.90
2639;DHT22;1329;51.384;7.122;2023-02-03T02:13:02;10.10;99.90
2639;DHT22;1329;51.384;7.122;2023-02-03T02:18:46;10.10;99.90
2639;DHT22;1329;51.384;7.122;2023-02-03T02:25:20;10.10;99.90
2639;DHT22;1329;51.384;7.122;2023-02-03T02:29:01;10.10;99.90
2639;DHT22;1329;51.384;7.122;2023-02-03T02:31:50;10.10;99.90
2639;DHT22;1329;51.384;7.122;2023-02-03T02:34:31;10.10;99.90
2639;DHT22;1329;51.384;7.122;2023-02-03T02:37:17;10.10;99.90
2639;DHT22;1329;51.384;7.122;2023-02-03T02:40:08;10.10;99.90
2639;DHT22;1329;51.384;7.122;2023-02-03T02:42:59;10.20;99.90
2639;DHT22;1329;51.384;7.122;2023-02-03T02:45:40;10.20;99.90
2639;DHT22;1329;51.384;7.122;2023-02-03T02:48:19;10.10;99.90
2639;DHT22;1329;51.384;7.122;2023-02-03T02:50:57;10.10;99.90
2639;DHT22;1329;51.384;7.122;2023-02-03T02:53:50;10.10;99.90
2639;DHT22;1329;51.384;7.122;2023-02-03T02:56:23;10.20;99.90
2639;DHT22;1329;51.384;7.122;2023-02-03T02:59:02;10.10;99.90
2639;DHT22;1329;51.384;7.122;2023-02-03T03:01:39;10.10;99.90
2639;DHT22;1329;51.384;7.122;2023-02-03T03:04:19;10.10;99.90
2639;DHT22;1329;51.384;7.122;2023-02-03T03:07:03;10.10;99.90
2639;DHT22;1329;51.384;7.122;2023-02-03T03:09:51;10.10;99.90
2639;DHT22;1329;51.384;7.122;2023-02-03T03:12:25;10.10;99.90
2639;DHT22;1329;51.384;7.122;2023-02-03T03:15:01;10.10;99.90
2639;DHT22;1329;51.384;7.122;2023-02-03T03:17:41;10.10;99.90
2639;DHT22;1329;51.384;7.122;2023-02-03T03:20:45;10.10;99.90
2639;DHT22;1329;51.384;7.122;2023-02-03T03:23:28;10.10;99.90
2639;DHT22;1329;51.384;7.122;2023-02-03T03:26:04;10.10;99.90
2639;DHT22;1329;51.384;7.122;2023-02-03T03:28:45;10.10;99.90
2639;DHT22;1329;51.384;7.122;2023-02-03T03:31:15;10.10;99.90
2639;DHT22;1329;51.384;7.122;2023-02-03T03:33:48;10.10;99.90
2639;DHT22;1329;51.384;7.122;2023-02-03T03:36:23;10.10;99.90
2639;DHT22;1329;51.384;7.122;2023-02-03T03:39:03;10.10;99.90
2639;DHT22;1329;51.384;7.122;2023-02-03T03:42:06;10.10;99.90
2639;DHT22;1329;51.384;7.122;2023-02-03T03:45:00;10.10;99.90
2639;DHT22;1329;51.384;7.122;2023-02-03T03:47:34;10.10;99.90
2639;DHT22;1329;51.384;7.122;2023-02-03T03:50:06;10.10;99.90
2639;DHT22;1329;51.384;7.122;2023-02-03T03:52:47;10.10;99.90
2639;DHT22;1329;51.384;7.122;2023-02-03T03:55:18;10.10;99.90
2639;DHT22;1329;51.384;7.122;2023-02-03T03:57:52;10.10;99.90
2639;DHT22;1329;51.384;7.122;2023-02-03T04:00:56;10.10;99.90
2639;DHT22;1329;51.384;7.122;2023-02-03T04:03:19;10.10;99.90
2639;DHT22;1329;51.384;7.122;2023-02-03T04:09:17;10.10;99.90
2639;DHT22;1329;51.384;7.122;2023-02-03T04:11:55;10.10;99.90
2639;DHT22;1329;51.384;7.122;2023-02-03T04:14:52;10.10;99.90
2639;DHT22;1329;51.384;7.122;2023-02-03T04:17:38;10.10;99.90
2639;DHT22;1329;51.384;7.122;2023-02-03T04:20:12;10.10;99.90
2639;DHT22;1329;51.384;7.122;2023-02-03T04:22:46;10.20;99.90
2639;DHT22;1329;51.384;7.122;2023-02-03T04:25:50;10.20;99.90
2639;DHT22;1329;51.384;7.122;2023-02-03T04:28:19;10.20;99.90
2639;DHT22;1329;51.384;7.122;2023-02-03T04:30:59;10.20;99.90
2639;DHT22;1329;51.384;7.122;2023-02-03T04:33:29;10.20;99.90
2639;DHT22;1329;51.384;7.122;2023-02-03T04:35:59;10.20;99.90
2639;DHT22;1329;51.384;7.122;2023-02-03T04:38:26;10.20;99.90
2639;DHT22;1329;51.384;7.122;2023-02-03T04:40:59;10.20;99.90
2639;DHT22;1329;51.384;7.122;2023-02-03T04:43:28;10.20;99.90
2639;DHT22;1329;51.384;7.122;2023-02-03T04:45:55;10.20;99.90
2639;DHT22;1329;51.384;7.122;2023-02-03T04:48:25;10.20;99.90
2639;DHT22;1329;51.384;7.122;2023-02-03T04:51:05;10.20;99.90
2639;DHT22;1329;51.384;7.122;2023-02-03T04:53:36;10.20;99.90
2639;DHT22;1329;51.384;7.122;2023-02-03T04:56:17;10.20;99.90
2639;DHT22;1329;51.384;7.122;2023-02-03T04:59:10;10.20;99.90
2639;DHT22;1329;51.384;7.122;2023-02-03T05:01:40;10.20;99.90
2639;DHT22;1329;51.384;7.122;2023-02-03T05:04:08;10.20;99.90
2639;DHT22;1329;51.384;7.122;2023-02-03T05:07:07;10.20;99.90
2639;DHT22;1329;51.384;7.122;2023-02-03T05:09:35;10.20;99.90
2639;DHT22;1329;51.384;7.122;2023-02-03T05:12:14;10.20;99.90
2639;DHT22;1329;51.384;7.122;2023-02-03T05:14:41;10.20;99.90
2639;DHT22;1329;51.384;7.122;2023-02-03T05:17:20;10.20;99.90
2639;DHT22;1329;51.384;7.122;2023-02-03T05:19:48;10.20;99.90
2639;DHT22;1329;51.384;7.122;2023-02-03T05:26:19;10.20;99.90
2639;DHT22;1329;51.384;7.122;2023-02-03T05:28:17;10.20;99.90
2639;DHT22;1329;51.384;7.122;2023-02-03T05:30:45;10.20;99.90
2639;DHT22;1329;51.384;7.122;2023-02-03T05:33:31;10.20;99.90
2639;DHT22;1329;51.384;7.122;2023-02-03T05:36:06;10.20;99.90
2639;DHT22;1329;51.384;7.122;2023-02-03T05:38:49;10.20;99.90
2639;DHT22;1329;51.384;7.122;2023-02-03T05:41:25;10.20;99.90
2639;DHT22;1329;51.384;7.122;2023-02-03T05:44:17;10.20;99.90
2639;DHT22;1329;51.384;7.122;2023-02-03T05:46:44;10.20;99.90
2639;DHT22;1329;51.384;7.122;2023-02-03T05:49:19;10.20;99.90
2639;DHT22;1329;51.384;7.122;2023-02-03T05:51:51;10.20;99.90
2639;DHT22;1329;51.384;7.122;2023-02-03T05:54:30;10.30;99.90
2639;DHT22;1329;51.384;7.122;2023-02-03T05:57:00;10.20;99.90
2639;DHT22;1329;51.384;7.122;2023-02-03T05:59:32;10.20;99.90
2639;DHT22;1329;51.384;7.122;2023-02-03T06:02:15;10.20;99.90
2639;DHT22;1329;51.384;7.122;2023-02-03T06:04:45;10.30;99.90
2639;DHT22;1329;51.384;7.122;2023-02-03T06:07:15;10.20;99.90
2639;DHT22;1329;51.384;7.122;2023-02-03T06:10:11;10.20;99.90
2639;DHT22;1329;51.384;7.122;2023-02-03T06:12:45;10.30;99.90
2639;DHT22;1329;51.384;7.122;2023-02-03T06:15:33;10.30;99.90
2639;DHT22;1329;51.384;7.122;2023-02-03T06:18:19;10.30;99.90
2639;DHT22;1329;51.384;7.122;2023-02-03T06:23:36;10.30;99.90
2639;DHT22;1329;51.384;7.122;2023-02-03T06:26:04;10.30;99.90
2639;DHT22;1329;51.384;7.122;2023-02-03T06:28:33;10.30;99.90
2639;DHT22;1329;51.384;7.122;2023-02-03T06:31:14;10.30;99.90
2639;DHT22;1329;51.384;7.122;2023-02-03T06:34:00;10.30;99.90
2639;DHT22;1329;51.384;7.122;2023-02-03T06:36:44;10.30;99.90
2639;DHT22;1329;51.384;7.122;2023-02-03T06:39:22;10.30;99.90
2639;DHT22;1329;51.384;7.122;2023-02-03T06:41:53;10.30;99.90
2639;DHT22;1329;51.384;7.122;2023-02-03T06:44:28;10.40;99.90
2639;DHT22;1329;51.384;7.122;2023-02-03T06:47:20;10.40;99.90
2639;DHT22;1329;51.384;7.122;2023-02-03T06:49:47;10.40;99.90
2639;DHT22;1329;51.384;7.122;2023-02-03T06:52:15;10.40;99.90
2639;DHT22;1329;51.384;7.122;2023-02-03T06:54:43;10.40;99.90
2639;DHT22;1329;51.384;7.122;2023-02-03T06:57:10;10.40;99.90
2639;DHT22;1329;51.384;7.122;2023-02-03T06:59:38;10.40;99.90
2639;DHT22;1329;51.384;7.122;2023-02-03T07:02:09;10.40;99.90
2639;DHT22;1329;51.384;7.122;2023-02-03T07:04:45;10.40;99.90
2639;DHT22;1329;51.384;7.122;2023-02-03T07:07:14;10.40;99.90
2639;DHT22;1329;51.384;7.122;2023-02-03T07:09:41;10.40;99.90
2639;DHT22;1329;51.384;7.122;2023-02-03T07:12:25;10.40;99.90
2639;DHT22;1329;51.384;7.122;2023-02-03T07:14:57;10.40;99.90
2639;DHT22;1329;51.384;7.122;2023-02-03T07:17:26;10.40;99.90
2639;DHT22;1329;51.384;7.122;2023-02-03T07:19:54;10.40;99.90
2639;DHT22;1329;51.384;7.122;2023-02-03T07:22:44;10.40;99.90
2639;DHT22;1329;51.384;7.122;2023-02-03T07:25:17;10.40;99.90
2639;DHT22;1329;51.384;7.122;2023-02-03T07:27:44;10.40;99.90
2639;DHT22;1329;51.384;7.122;2023-02-03T07:30:21;10.40;99.90
2639;DHT22;1329;51.384;7.122;2023-02-03T07:32:50;10.40;99.90
2639;DHT22;1329;51.384;7.122;2023-02-03T07:35:19;10.40;99.90
2639;DHT22;1329;51.384;7.122;2023-02-03T07:37:47;10.40;99.90
2639;DHT22;1329;51.384;7.122;2023-02-03T07:40:17;10.40;99.90
2639;DHT22;1329;51.384;7.122;2023-02-03T07:42:46;10.40;99.90
2639;DHT22;1329;51.384;7.122;2023-02-03T07:45:26;10.40;99.90
2639;DHT22;1329;51.384;7.122;2023-02-03T07:47:55;10.40;99.90
2639;DHT22;1329;51.384;7.122;2023-02-03T07:50:25;10.40;99.90
2639;DHT22;1329;51.384;7.122;2023-02-03T07:52:56;10.50;99.90
2639;DHT22;1329;51.384;7.122;2023-02-03T07:55:26;10.50;99.90
2639;DHT22;1329;51.384;7.122;2023-02-03T07:57:59;10.50;99.90
2639;DHT22;1329;51.384;7.122;2023-02-03T08:00:30;10.50;99.90
2639;DHT22;1329;51.384;7.122;2023-02-03T08:03:02;10.50;99.90
2639;DHT22;1329;51.384;7.122;2023-02-03T08:05:31;10.50;99.90
2639;DHT22;1329;51.384;7.122;2023-02-03T08:07:58;10.50;99.90
2639;DHT22;1329;51.384;7.122;2023-02-03T08:10:27;10.50;99.90
2639;DHT22;1329;51.384;7.122;2023-02-03T08:12:55;10.50;99.90
2639;DHT22;1329;51.384;7.122;2023-02-03T08:15:24;10.50;99.90
2639;DHT22;1329;51.384;7.122;2023-02-03T08:17:51;10.50;99.90
2639;DHT22;1329;51.384;7.122;2023-02-03T08:20:18;10.60;99.90
2639;DHT22;1329;51.384;7.122;2023-02-03T08:22:50;10.60;99.90
2639;DHT22;1329;51.384;7.122;2023-02-03T08:25:19;10.50;99.90
2639;DHT22;1329;51.384;7.122;2023-02-03T08:27:49;10.60;99.90
2639;DHT22;1329;51.384;7.122;2023-02-03T08:30:16;10.60;99.90
2639;DHT22;1329;51.384;7.122;2023-02-03T08:32:56;10.60;99.90
2639;DHT22;1329;51.384;7.122;2023-02-03T08:35:24;10.60;99.90
2639;DHT22;1329;51.384;7.122;2023-02-03T08:37:53;10.60;99.90
2639;DHT22;1329;51.384;7.122;2023-02-03T08:40:24;10.60;99.90
2639;DHT22;1329;51.384;7.122;2023-02-03T08:42:51;10.60;99.90
2639;DHT22;1329;51.384;7.122;2023-02-03T08:45:19;10.50;99.90
2639;DHT22;1329;51.384;7.122;2023-02-03T08:47:48;10.60;99.90
2639;DHT22;1329;51.384;7.122;2023-02-03T08:50:16;10.50;99.90
2639;DHT22;1329;51.384;7.122;2023-02-03T08:52:47;10.50;99.90
2639;DHT22;1329;51.384;7.122;2023-02-03T08:55:45;10.50;99.90
2639;DHT22;1329;51.384;7.122;2023-02-03T08:58:12;10.50;99.90
2639;DHT22;1329;51.384;7.122;2023-02-03T09:00:39;10.50;99.90
2639;DHT22;1329;51.384;7.122;2023-02-03T09:03:09;10.50;99.90
2639;DHT22;1329;51.384;7.122;2023-02-03T09:05:36;10.50;99.90
2639;DHT22;1329;51.384;7.122;2023-02-03T09:08:04;10.50;99.90
2639;DHT22;1329;51.384;7.122;2023-02-03T09:10:31;10.50;99.90
2639;DHT22;1329;51.384;7.122;2023-02-03T09:12:59;10.50;99.90
2639;DHT22;1329;51.384;7.122;2023-02-03T09:15:26;10.50;99.90
2639;DHT22;1329;51.384;7.122;2023-02-03T09:17:54;10.50;99.90
2639;DHT22;1329;51.384;7.122;2023-02-03T09:20:28;10.50;99.90
2639;DHT22;1329;51.384;7.122;2023-02-03T09:22:57;10.60;99.90
2639;DHT22;1329;51.384;7.122;2023-02-03T09:25:25;10.50;99.90
2639;DHT22;1329;51.384;7.122;2023-02-03T09:27:52;10.60;99.90
2639;DHT22;1329;51.384;7.122;2023-02-03T09:30:24;10.60;99.90
2639;DHT22;1329;51.384;7.122;2023-02-03T09:32:51;10.60;99.90
2639;DHT22;1329;51.384;7.122;2023-02-03T09:35:21;10.60;99.90
2639;DHT22;1329;51.384;7.122;2023-02-03T09:37:48;10.60;99.90
2639;DHT22;1329;51.384;7.122;2023-02-03T09:40:19;10.60;99.90
2639;DHT22;1329;51.384;7.122;2023-02-03T09:43:03;10.60;99.90
2639;DHT22;1329;51.384;7.122;2023-02-03T09:45:40;10.60;99.90
2639;DHT22;1329;51.384;7.122;2023-02-03T09:48:12;10.60;99.90
2639;DHT22;1329;51.384;7.122;2023-02-03T09:50:42;10.60;99.90
2639;DHT22;1329;51.384;7.122;2023-02-03T09:53:19;10.60;99.90
2639;DHT22;1329;51.384;7.122;2023-02-03T09:56:22;10.60;99.90
2639;DHT22;1329;51.384;7.122;2023-02-03T09:58:52;10.60;99.90
2639;DHT22;1329;51.384;7.122;2023-02-03T10:01:21;10.60;99.90
2639;DHT22;1329;51.384;7.122;2023-02-03T10:03:53;10.60;99.90
2639;DHT22;1329;51.384;7.122;2023-02-03T10:06:31;10.60;99.90
2639;DHT22;1329;51.384;7.122;2023-02-03T10:09:21;10.60;99.90
2639;DHT22;1329;51.384;7.122;2023-02-03T10:15:26;10.60;99.90
2639;DHT22;1329;51.384;7.122;2023-02-03T10:18:10;10.60;99.90
2639;DHT22;1329;51.384;7.122;2023-02-03T10:20:43;10.60;99.90
2639;DHT22;1329;51.384;7.122;2023-02-03T10:23:17;10.70;99.90
2639;DHT22;1329;51.384;7.122;2023-02-03T10:25:50;10.70;99.90
2639;DHT22;1329;51.384;7.122;2023-02-03T10:28:23;10.70;99.90
2639;DHT22;1329;51.384;7.122;2023-02-03T10:30:55;10.70;99.90
2639;DHT22;1329;51.384;7.122;2023-02-03T10:33:26;10.70;99.90
2639;DHT22;1329;51.384;7.122;2023-02-03T10:36:00;10.70;99.90
2639;DHT22;1329;51.384;7.122;2023-02-03T10:38:45;10.70;99.90
2639;DHT22;1329;51.384;7.122;2023-02-03T10:41:19;10.70;99.90
2639;DHT22;1329;51.384;7.122;2023-02-03T10:43:48;10.70;99.90
2639;DHT22;1329;51.384;7.122;2023-02-03T10:46:25;10.70;99.90
2639;DHT22;1329;51.384;7.122;2023-02-03T10:48:55;10.70;99.90
2639;DHT22;1329;51.384;7.122;2023-02-03T10:51:24;10.70;99.90
2639;DHT22;1329;51.384;7.122;2023-02-03T10:53:52;10.70;99.90
2639;DHT22;1329;51.384;7.122;2023-02-03T10:56:21;10.70;99.90
2639;DHT22;1329;51.384;7.122;2023-02-03T10:58:51;10.70;99.90
2639;DHT22;1329;51.384;7.122;2023-02-03T11:01:23;10.70;99.90
2639;DHT22;1329;51.384;7.122;2023-02-03T11:03:58;10.80;99.90
2639;DHT22;1329;51.384;7.122;2023-02-03T11:06:28;10.80;99.90
2639;DHT22;1329;51.384;7.122;2023-02-03T11:08:56;10.80;99.90
2639;DHT22;1329;51.384;7.122;2023-02-03T11:11:25;10.80;99.90
2639;DHT22;1329;51.384;7.122;2023-02-03T11:14:10;10.80;99.90
2639;DHT22;1329;51.384;7.122;2023-02-03T11:16:41;10.80;99.90
2639;DHT22;1329;51.384;7.122;2023-02-03T11:19:15;10.80;99.90
2639;DHT22;1329;51.384;7.122;2023-02-03T11:21:49;10.80;99.90
2639;DHT22;1329;51.384;7.122;2023-02-03T11:24:20;10.80;99.90
2639;DHT22;1329;51.384;7.122;2023-02-03T11:26:52;10.80;99.90
2639;DHT22;1329;51.384;7.122;2023-02-03T11:29:23;10.80;99.90
2639;DHT22;1329;51.384;7.122;2023-02-03T11:31:54;10.80;99.90
2639;DHT22;1329;51.384;7.122;2023-02-03T11:34:27;10.80;99.90
2639;DHT22;1329;51.384;7.122;2023-02-03T11:36:55;10.90;99.90
2639;DHT22;1329;51.384;7.122;2023-02-03T11:39:28;10.80;99.90
2639;DHT22;1329;51.384;7.122;2023-02-03T11:42:00;10.80;99.90
2639;DHT22;1329;51.384;7.122;2023-02-03T11:44:28;10.90;99.90
2639;DHT22;1329;51.384;7.122;2023-02-03T11:47:08;10.90;99.90
2639;DHT22;1329;51.384;7.122;2023-02-03T11:49:57;10.90;99.90
2639;DHT22;1329;51.384;7.122;2023-02-03T11:55:35;11.00;99.90
2639;DHT22;1329;51.384;7.122;2023-02-03T11:58:28;11.00;99.90
2639;DHT22;1329;51.384;7.122;2023-02-03T12:01:25;11.00;99.90
2639;DHT22;1329;51.384;7.122;2023-02-03T12:04:34;11.00;99.90
2639;DHT22;1329;51.384;7.122;2023-02-03T12:07:35;11.10;99.90
2639;DHT22;1329;51.384;7.122;2023-02-03T12:10:16;11.10;99.90
2639;DHT22;1329;51.384;7.122;2023-02-03T12:12:56;11.10;99.90
2639;DHT22;1329;51.384;7.122;2023-02-03T12:15:40;11.20;99.90
2639;DHT22;1329;51.384;7.122;2023-02-03T12:18:34;11.20;99.90
2639;DHT22;1329;51.384;7.122;2023-02-03T12:24:27;11.20;99.90
2639;DHT22;1329;51.384;7.122;2023-02-03T12:27:09;11.20;99.90
2639;DHT22;1329;51.384;7.122;2023-02-03T12:29:45;11.30;99.90
2639;DHT22;1329;51.384;7.122;2023-02-03T12:32:22;11.30;99.90
2639;DHT22;1329;51.384;7.122;2023-02-03T12:34:55;11.20;99.90
2639;DHT22;1329;51.384;7.122;2023-02-03T12:37:29;11.30;99.90
2639;DHT22;1329;51.384;7.122;2023-02-03T12:40:05;11.30;99.90
2639;DHT22;1329;51.384;7.122;2023-02-03T12:42:42;11.30;99.90
2639;DHT22;1329;51.384;7.122;2023-02-03T12:45:18;11.40;99.90
2639;DHT22;1329;51.384;7.122;2023-02-03T12:47:50;11.40;99.90
2639;DHT22;1329;51.384;7.122;2023-02-03T12:50:25;11.40;99.90
2639;DHT22;1329;51.384;7.122;2023-02-03T12:52:57;11.40;99.90
2639;DHT22;1329;51.384;7.122;2023-02-03T12:55:33;11.40;99.90
2639;DHT22;1329;51.384;7.122;2023-02-03T12:58:04;11.40;99.90
2639;DHT22;1329;51.384;7.122;2023-02-03T13:00:38;11.40;99.90
2639;DHT22;1329;51.384;7.122;2023-02-03T13:03:23;11.40;99.90
2639;DHT22;1329;51.384;7.122;2023-02-03T13:05:57;11.50;99.90
2639;DHT22;1329;51.384;7.122;2023-02-03T13:08:33;11.40;99.90
2639;DHT22;1329;51.384;7.122;2023-02-03T13:11:17;11.40;99.90
2639;DHT22;1329;51.384;7.122;2023-02-03T13:13:49;11.40;99.90
2639;DHT22;1329;51.384;7.122;2023-02-03T13:16:23;11.40;99.90
2639;DHT22;1329;51.384;7.122;2023-02-03T13:18:59;11.30;99.90
2639;DHT22;1329;51.384;7.122;2023-02-03T13:21:29;11.30;99.90
2639;DHT22;1329;51.384;7.122;2023-02-03T13:23:56;11.30;99.90
2639;DHT22;1329;51.384;7.122;2023-02-03T13:27:01;11.20;99.90
2639;DHT22;1329;51.384;7.122;2023-02-03T13:29:52;11.30;99.90
2639;DHT22;1329;51.384;7.122;2023-02-03T13:32:49;11.20;99.90
2639;DHT22;1329;51.384;7.122;2023-02-03T13:35:41;11.20;99.90
2639;DHT22;1329;51.384;7.122;2023-02-03T13:38:37;11.20;99.90
2639;DHT22;1329;51.384;7.122;2023-02-03T13:41:18;11.20;99.90
2639;DHT22;1329;51.384;7.122;2023-02-03T13:43:50;11.20;99.90
2639;DHT22;1329;51.384;7.122;2023-02-03T13:46:22;11.20;99.90
2639;DHT22;1329;51.384;7.122;2023-02-03T13:48:51;11.20;99.90
2639;DHT22;1329;51.384;7.122;2023-02-03T13:51:21;11.30;99.90
2639;DHT22;1329;51.384;7.122;2023-02-03T13:53:51;11.30;99.90
2639;DHT22;1329;51.384;7.122;2023-02-03T13:56:25;11.30;99.90
2639;DHT22;1329;51.384;7.122;2023-02-03T13:59:04;11.30;99.90
2639;DHT22;1329;51.384;7.122;2023-02-03T14:01:34;11.30;99.90
2639;DHT22;1329;51.384;7.122;2023-02-03T14:04:04;11.30;99.90
2639;DHT22;1329;51.384;7.122;2023-02-03T14:07:00;11.30;99.90
2639;DHT22;1329;51.384;7.122;2023-02-03T14:09:41;11.40;99.90
2639;DHT22;1329;51.384;7.122;2023-02-03T14:15:32;11.30;99.90
2639;DHT22;1329;51.384;7.122;2023-02-03T14:18:31;11.30;99.90
2639;DHT22;1329;51.384;7.122;2023-02-03T14:21:11;11.30;99.90
2639;DHT22;1329;51.384;7.122;2023-02-03T14:23:44;11.30;99.90
2639;DHT22;1329;51.384;7.122;2023-02-03T14:26:19;11.30;99.90
2639;DHT22;1329;51.384;7.122;2023-02-03T14:28:50;11.20;99.90
2639;DHT22;1329;51.384;7.122;2023-02-03T14:31:20;11.20;99.90
2639;DHT22;1329;51.384;7.122;2023-02-03T14:34:04;11.10;99.90
2639;DHT22;1329;51.384;7.122;2023-02-03T14:36:49;11.10;99.90
2639;DHT22;1329;51.384;7.122;2023-02-03T14:45:53;10.80;99.90
2639;DHT22;1329;51.384;7.122;2023-02-03T14:51:48;10.70;99.90
2639;DHT22;1329;51.384;7.122;2023-02-03T14:54:33;10.60;99.90
2639;DHT22;1329;51.384;7.122;2023-02-03T15:00:25;10.40;99.90
2639;DHT22;1329;51.384;7.122;2023-02-03T15:03:41;10.30;99.90
2639;DHT22;1329;51.384;7.122;2023-02-03T15:06:47;10.20;99.90
2639;DHT22;1329;51.384;7.122;2023-02-03T15:09:22;10.20;99.90
2639;DHT22;1329;51.384;7.122;2023-02-03T15:11:57;10.20;99.90
2639;DHT22;1329;51.384;7.122;2023-02-03T15:14:38;10.10;99.90
2639;DHT22;1329;51.384;7.122;2023-02-03T15:17:23;10.10;99.90
2639;DHT22;1329;51.384;7.122;2023-02-03T15:20:00;10.10;99.90
2639;DHT22;1329;51.384;7.122;2023-02-03T15:22:29;10.10;99.90
2639;DHT22;1329;51.384;7.122;2023-02-03T15:25:08;10.10;99.90
2639;DHT22;1329;51.384;7.122;2023-02-03T15:27:43;10.10;99.90
2639;DHT22;1329;51.384;7.122;2023-02-03T15:30:15;10.10;99.90
2639;DHT22;1329;51.384;7.122;2023-02-03T15:32:46;10.10;99.90
2639;DHT22;1329;51.384;7.122;2023-02-03T15:35:29;10.10;99.90
2639;DHT22;1329;51.384;7.122;2023-02-03T15:38:09;10.10;99.90
2639;DHT22;1329;51.384;7.122;2023-02-03T15:40:43;10.10;99.90
2639;DHT22;1329;51.384;7.122;2023-02-03T15:43:27;10.10;99.90
2639;DHT22;1329;51.384;7.122;2023-02-03T15:46:15;10.20;99.90
2639;DHT22;1329;51.384;7.122;2023-02-03T15:48:49;10.10;99.90
2639;DHT22;1329;51.384;7.122;2023-02-03T15:51:22;10.10;99.90
2639;DHT22;1329;51.384;7.122;2023-02-03T15:53:55;10.10;99.90
2639;DHT22;1329;51.384;7.122;2023-02-03T15:56:31;10.10;99.90
2639;DHT22;1329;51.384;7.122;2023-02-03T16:01:56;10.20;99.90
2639;DHT22;1329;51.384;7.122;2023-02-03T16:04:30;10.10;99.90
2639;DHT22;1329;51.384;7.122;2023-02-03T16:07:31;10.10;99.90
2639;DHT22;1329;51.384;7.122;2023-02-03T16:10:21;10.10;99.90
2639;DHT22;1329;51.384;7.122;2023-02-03T16:13:18;10.10;99.90
2639;DHT22;1329;51.384;7.122;2023-02-03T16:16:06;10.10;99.90
2639;DHT22;1329;51.384;7.122;2023-02-03T16:18:55;10.10;99.90
2639;DHT22;1329;51.384;7.122;2023-02-03T16:21:35;10.10;99.90
2639;DHT22;1329;51.384;7.122;2023-02-03T16:24:55;10.10;99.90
2639;DHT22;1329;51.384;7.122;2023-02-03T16:27:56;10.10;99.90
2639;DHT22;1329;51.384;7.122;2023-02-03T16:30:52;10.10;99.90
2639;DHT22;1329;51.384;7.122;2023-02-03T16:33:38;10.10;99.90
2639;DHT22;1329;51.384;7.122;2023-02-03T16:36:26;10.00;99.90
2639;DHT22;1329;51.384;7.122;2023-02-03T16:42:20;10.10;99.90
2639;DHT22;1329;51.384;7.122;2023-02-03T16:45:14;10.00;99.90
2639;DHT22;1329;51.384;7.122;2023-02-03T16:48:00;10.00;99.90
2639;DHT22;1329;51.384;7.122;2023-02-03T16:51:01;10.00;99.90
2639;DHT22;1329;51.384;7.122;2023-02-03T16:53:33;10.00;99.90
2639;DHT22;1329;51.384;7.122;2023-02-03T16:56:05;10.00;99.90
2639;DHT22;1329;51.384;7.122;2023-02-03T16:58:49;10.00;99.90
2639;DHT22;1329;51.384;7.122;2023-02-03T17:01:19;10.00;99.90
2639;DHT22;1329;51.384;7.122;2023-02-03T17:03:52;10.00;99.90
2639;DHT22;1329;51.384;7.122;2023-02-03T17:06:35;10.00;99.90
2639;DHT22;1329;51.384;7.122;2023-02-03T17:09:04;10.00;99.90
2639;DHT22;1329;51.384;7.122;2023-02-03T17:11:46;10.00;99.90
2639;DHT22;1329;51.384;7.122;2023-02-03T17:14:20;10.00;99.90
2639;DHT22;1329;51.384;7.122;2023-02-03T17:17:14;10.00;99.90
2639;DHT22;1329;51.384;7.122;2023-02-03T17:19:42;10.00;99.90
2639;DHT22;1329;51.384;7.122;2023-02-03T17:22:10;10.00;99.90
2639;DHT22;1329;51.384;7.122;2023-02-03T17:24:46;9.90;99.90
2639;DHT22;1329;51.384;7.122;2023-02-03T17:27:23;9.90;99.90
2639;DHT22;1329;51.384;7.122;2023-02-03T17:29:54;9.90;99.90
2639;DHT22;1329;51.384;7.122;2023-02-03T17:32:21;9.90;99.90
2639;DHT22;1329;51.384;7.122;2023-02-03T17:34:49;9.90;99.90
2639;DHT22;1329;51.384;7.122;2023-02-03T17:37:19;9.90;99.90
2639;DHT22;1329;51.384;7.122;2023-02-03T17:39:56;9.90;99.90
2639;DHT22;1329;51.384;7.122;2023-02-03T17:42:40;9.90;99.90
2639;DHT22;1329;51.384;7.122;2023-02-03T17:45:11;9.90;99.90
2639;DHT22;1329;51.384;7.122;2023-02-03T17:47:55;9.90;99.90
2639;DHT22;1329;51.384;7.122;2023-02-03T17:50:30;9.90;99.90